KFHU/FHU METAR and TAF weather

Enter ICAO airport designator
Station Type Date Time Source
KFHU METAR 2020/09/21 23:58 UTC NOAA

KFHU 212358Z 26010KT 10SM SCT120 SCT140 30/03 A3011 RMK AO2A SLP123 T03010027 10328 20294


Station Type Date Time Source
KFHU Decoded METAR 2020/09/21 23:58 UTC NOAA

Fort Huachuca, Libby AAF Ft Huachuca, AZ, United States (KFHU) 46-98N 110-20W
Sep 21, 2020 - 07:58 PM EDT / 2020.09.21 2358 UTC
Wind: from the W (260 degrees) at 12 MPH (10 KT):0
Visibility: 10 mile(s):0
Sky conditions: partly cloudy
Temperature: 86.2 F (30.1 C)
Dew Point: 36.9 F (2.7 C)
Relative Humidity: 17%
Pressure (altimeter): 30.11 in. Hg (1019 hPa)
ob: KFHU 212358Z 26010KT 10SM SCT120 SCT140 30/03 A3011 RMK AO2A SLP123 T03010027 10328 20294
cycle: 0

Station Type Date Time Source
KFHU TAF 2020/09/21 22:03 UTC NOAA

TAF TAF KFHU 212200Z 2122/2304 15009KT 9999 FEW120 QNH3006INS
TEMPO 2122/2124 15010G15KT VCSH SCT120
BECMG 2206/2207 23007KT 9999 SKC QNH3012INS
BECMG 2219/2220 34010G15KT 9999 SCT100 QNH3010INS TX31/2220Z TN18/2212Z

Example: see airport list